Time;durP1;ratioP1;P1;durP2;ratioP2;P2;SDS_P1;SDS_P2;PMS_P1;PMS_P2;Temp;Humidity;BMP_temperature;BMP_pressure;BME280_temperature;BME280_humidity;BME280_pressure;Samples;Min_cycle;Max_cycle;Signal;HPM_P1;HPM_P2
2021/06/13 00:02:12;;;;;;;9.90;3.97;;;;;;;13.62;64.41;101628.09;5070364;28;20203;-65
2021/06/13 00:04:38;;;;;;;4.90;3.13;;;;;;;13.59;64.68;101628.28;5072897;28;20277;-66
2021/06/13 00:07:05;;;;;;;9.07;4.10;;;;;;;13.55;64.57;101628.47;5077025;28;20290;-65
2021/06/13 00:09:31;;;;;;;6.00;3.50;;;;;;;13.53;64.96;101634.88;5076153;28;20217;-64
2021/06/13 00:11:57;;;;;;;13.33;4.27;;;;;;;13.50;65.00;101637.72;5078909;28;20261;-64
2021/06/13 00:14:24;;;;;;;8.10;3.40;;;;;;;13.48;64.84;101642.31;5079748;28;20250;-66
2021/06/13 00:16:50;;;;;;;9.67;3.73;;;;;;;13.47;65.01;101645.94;5084528;28;20208;-66
2021/06/13 00:19:16;;;;;;;8.60;4.30;;;;;;;13.43;64.87;101647.94;5075282;28;20201;-65
2021/06/13 00:21:42;;;;;;;10.77;3.90;;;;;;;13.38;64.89;101639.34;5077457;28;20205;-64
2021/06/13 00:24:10;;;;;;;7.80;3.30;;;;;;;13.34;65.00;101648.47;5075894;28;20701;-65
2021/06/13 00:26:37;;;;;;;7.63;3.30;;;;;;;13.29;64.90;101639.00;5081118;28;20503;-65
2021/06/13 00:29:03;;;;;;;10.10;3.73;;;;;;;13.24;64.84;101635.75;5077225;28;20247;-65
2021/06/13 00:31:30;;;;;;;8.10;3.33;;;;;;;13.19;65.26;101644.03;5075972;28;20216;-66
2021/06/13 00:33:56;;;;;;;10.03;4.17;;;;;;;13.16;65.04;101646.88;5082798;28;20200;-65
2021/06/13 00:36:22;;;;;;;7.17;3.60;;;;;;;13.13;65.29;101644.34;5079025;28;20713;-64
2021/06/13 00:38:48;;;;;;;9.30;4.00;;;;;;;13.09;65.29;101646.34;5078530;28;20204;-65
2021/06/13 00:41:17;;;;;;;9.73;4.33;;;;;;;13.06;65.29;101649.22;5078222;28;20279;-65
2021/06/13 00:43:43;;;;;;;5.77;4.00;;;;;;;13.03;65.76;101645.84;5080614;28;20908;-65
2021/06/13 00:46:09;;;;;;;7.10;3.03;;;;;;;13.02;65.62;101646.78;5077841;28;20243;-65
2021/06/13 00:48:35;;;;;;;11.13;4.53;;;;;;;12.98;65.71;101646.09;5082938;28;20211;-65
2021/06/13 00:51:01;;;;;;;8.17;3.80;;;;;;;12.95;65.91;101653.44;5077508;28;20666;-66
2021/06/13 00:53:29;;;;;;;13.37;4.07;;;;;;;12.92;66.15;101649.13;5084721;28;20280;-65
2021/06/13 00:55:55;;;;;;;9.00;3.80;;;;;;;12.89;65.94;101645.78;5082349;28;20243;-66
2021/06/13 00:58:23;;;;;;;10.27;4.10;;;;;;;12.87;66.30;101659.25;5082272;28;20203;-66
2021/06/13 01:00:49;;;;;;;7.57;3.90;;;;;;;12.85;66.22;101662.00;5081759;28;20239;-65
2021/06/13 01:03:16;;;;;;;9.03;4.33;;;;;;;12.84;66.77;101652.25;5077554;28;20569;-65
2021/06/13 01:05:43;;;;;;;9.13;4.97;;;;;;;12.83;66.87;101655.00;5080849;28;20286;-65
2021/06/13 01:08:21;;;;;;;9.07;4.20;;;;;;;12.81;67.03;101662.25;5082714;28;20232;-66
2021/06/13 01:11:02;;;;;;;7.47;3.60;;;;;;;12.78;67.09;101659.75;5079837;28;20192;-66
2021/06/13 01:13:37;;;;;;;8.37;4.23;;;;;;;12.74;67.29;101658.19;5081601;28;20202;-65
2021/06/13 01:16:10;;;;;;;12.07;4.60;;;;;;;12.70;67.65;101659.34;5080105;28;20228;-65
2021/06/13 01:18:43;;;;;;;9.07;3.37;;;;;;;12.65;67.76;101662.25;5079832;28;20197;-66
2021/06/13 01:21:13;;;;;;;9.90;4.63;;;;;;;12.60;67.98;101664.31;5076757;28;20221;-65
2021/06/13 01:23:58;;;;;;;9.43;4.50;;;;;;;12.57;68.15;101668.94;5078378;28;20665;-66
2021/06/13 01:26:58;;;;;;;12.17;4.17;;;;;;;12.50;68.08;101663.97;5078877;28;20225;-65
2021/06/13 01:29:29;;;;;;;6.27;3.67;;;;;;;12.45;68.39;101665.16;5079742;28;20248;-65
2021/06/13 01:31:58;;;;;;;8.77;4.27;;;;;;;12.41;68.70;101668.94;5078123;28;20217;-66
2021/06/13 01:34:30;;;;;;;12.57;4.70;;;;;;;12.36;68.89;101663.84;5075890;28;20227;-64
2021/06/13 01:36:58;;;;;;;10.07;4.37;;;;;;;12.34;69.12;101664.91;5083448;28;20202;-65
2021/06/13 01:39:27;;;;;;;8.93;4.50;;;;;;;12.31;69.28;101660.59;5076370;28;20235;-65
2021/06/13 01:41:58;;;;;;;11.53;4.20;;;;;;;12.29;69.63;101657.13;5079459;28;20205;-66
2021/06/13 01:47:03;;;;;;;10.07;3.70;;;;;;;12.26;69.69;101673.31;5108361;22;20236;-65
2021/06/13 01:49:30;;;;;;;13.40;4.60;;;;;;;12.25;69.99;101684.09;5084552;28;20196;-64
2021/06/13 01:51:56;;;;;;;10.83;3.93;;;;;;;12.25;70.05;101679.59;5082935;28;20902;-64
2021/06/13 01:54:25;;;;;;;10.43;3.93;;;;;;;12.24;70.24;101677.88;5086511;28;20219;-68
2021/06/13 01:56:53;;;;;;;11.67;4.60;;;;;;;12.24;70.16;101682.34;5088408;28;20236;-65
2021/06/13 01:59:21;;;;;;;8.47;4.33;;;;;;;12.24;70.32;101682.34;5084082;28;20297;-65
2021/06/13 02:01:48;;;;;;;12.83;3.97;;;;;;;12.24;70.27;101675.19;5083949;28;20206;-65
2021/06/13 02:04:15;;;;;;;8.23;4.10;;;;;;;12.24;70.34;101677.88;5086478;28;20241;-64
2021/06/13 02:06:44;;;;;;;9.70;3.83;;;;;;;12.24;70.41;101685.88;5083519;28;20762;-64
2021/06/13 02:09:12;;;;;;;9.93;4.60;;;;;;;12.24;70.55;101688.56;5087077;28;20208;-60
2021/06/13 02:11:42;;;;;;;11.93;4.40;;;;;;;12.25;70.59;101689.41;5083358;28;20196;-64
2021/06/13 02:14:10;;;;;;;7.67;4.23;;;;;;;12.25;70.60;101690.28;5084438;28;20211;-66
2021/06/13 02:16:37;;;;;;;9.87;4.53;;;;;;;12.27;70.52;101695.53;5083938;28;20223;-67
2021/06/13 02:19:04;;;;;;;13.50;4.30;;;;;;;12.26;70.58;101686.66;5085608;28;20578;-65
2021/06/13 02:21:33;;;;;;;12.00;4.90;;;;;;;12.26;70.65;101685.81;5085869;28;20208;-61
2021/06/13 02:23:59;;;;;;;9.37;4.53;;;;;;;12.24;70.44;101683.22;5084368;28;20575;-64
2021/06/13 02:26:27;;;;;;;7.73;4.50;;;;;;;12.23;70.55;101689.50;5086335;28;20229;-65
2021/06/13 02:28:55;;;;;;;11.63;4.30;;;;;;;12.21;70.41;101688.72;5084096;28;20209;-66
2021/06/13 02:31:25;;;;;;;11.63;5.00;;;;;;;12.20;70.40;101695.00;5084434;28;20208;-65
2021/06/13 02:33:52;;;;;;;11.43;4.27;;;;;;;12.17;70.61;101692.53;5084555;28;20200;-65
2021/06/13 02:36:18;;;;;;;11.33;4.57;;;;;;;12.15;70.68;101697.06;5085428;28;20685;-65
2021/06/13 02:38:46;;;;;;;7.30;4.10;;;;;;;12.13;70.58;101696.28;5078130;28;20196;-64
2021/06/13 02:41:12;;;;;;;8.53;4.20;;;;;;;12.09;70.69;101700.94;5085162;28;20708;-63
2021/06/13 02:43:38;;;;;;;7.57;4.20;;;;;;;12.07;70.59;101699.28;5081711;28;20574;-65
2021/06/13 02:46:04;;;;;;;7.67;4.20;;;;;;;12.04;70.74;101702.09;5084273;28;20232;-67
2021/06/13 02:48:30;;;;;;;8.73;4.13;;;;;;;12.01;70.73;101708.47;5083717;28;20209;-65
2021/06/13 02:50:57;;;;;;;9.83;4.23;;;;;;;11.99;70.78;101718.38;5084784;28;20205;-65
2021/06/13 02:53:30;;;;;;;9.77;4.13;;;;;;;11.95;70.88;101710.63;5083877;28;20211;-64
2021/06/13 02:56:02;;;;;;;12.43;4.77;;;;;;;11.90;70.86;101710.84;5084240;28;20217;-65
2021/06/13 02:58:37;;;;;;;8.63;3.83;;;;;;;11.88;70.95;101717.19;5081853;28;20227;-64
2021/06/13 03:01:06;;;;;;;9.70;4.10;;;;;;;11.85;70.76;101709.34;5083361;28;20223;-65
2021/06/13 03:03:34;;;;;;;7.03;3.80;;;;;;;11.82;70.87;101716.56;5083432;28;20226;-65
2021/06/13 03:06:03;;;;;;;8.03;3.53;;;;;;;11.79;71.14;101719.41;5085386;28;20265;-65
2021/06/13 03:08:30;;;;;;;6.27;4.17;;;;;;;11.75;71.07;101728.47;5083070;28;20208;-66
2021/06/13 03:10:58;;;;;;;7.27;3.90;;;;;;;11.71;71.32;101726.91;5082508;28;20201;-64
2021/06/13 03:13:25;;;;;;;10.97;4.23;;;;;;;11.68;71.35;101727.06;5084972;28;20201;-66
2021/06/13 03:15:53;;;;;;;12.73;3.90;;;;;;;11.67;71.51;101724.47;5082131;28;20726;-64
2021/06/13 03:18:19;;;;;;;10.00;4.37;;;;;;;11.65;71.88;101723.66;5085973;28;20204;-65
2021/06/13 03:20:46;;;;;;;10.17;4.30;;;;;;;11.63;71.60;101725.59;5082765;28;20220;-65
2021/06/13 03:23:13;;;;;;;12.67;3.93;;;;;;;11.61;71.82;101731.00;5084898;28;20200;-64
2021/06/13 03:25:40;;;;;;;8.23;4.27;;;;;;;11.59;71.86;101738.22;5083957;28;20224;-64
2021/06/13 03:28:08;;;;;;;9.57;4.23;;;;;;;11.58;71.89;101736.47;5084474;28;20557;-65
2021/06/13 03:30:35;;;;;;;14.27;4.13;;;;;;;11.58;71.82;101735.63;5082455;28;20197;-65
2021/06/13 03:33:02;;;;;;;7.57;4.33;;;;;;;11.56;71.92;101741.03;5081835;28;20204;-63
2021/06/13 03:35:29;;;;;;;11.37;4.60;;;;;;;11.56;71.62;101743.69;5081178;28;20234;-65
2021/06/13 03:37:56;;;;;;;9.80;4.37;;;;;;;11.55;71.83;101741.09;5085038;28;20205;-66
2021/06/13 03:40:24;;;;;;;10.93;4.13;;;;;;;11.52;71.90;101739.44;5081706;28;20698;-66
2021/06/13 03:42:51;;;;;;;7.97;3.80;;;;;;;11.50;72.11;101741.31;5082541;28;20212;-69
2021/06/13 03:45:20;;;;;;;11.27;4.07;;;;;;;11.48;71.97;101746.72;5081189;28;20870;-64
2021/06/13 03:47:47;;;;;;;7.40;3.90;;;;;;;11.47;71.94;101742.34;5083652;28;20204;-65
2021/06/13 03:50:18;;;;;;;9.87;3.90;;;;;;;11.46;72.12;101745.09;5083988;28;20200;-64
2021/06/13 03:52:45;;;;;;;13.47;4.00;;;;;;;11.46;72.18;101753.09;5081964;28;20212;-65
2021/06/13 03:55:12;;;;;;;9.37;3.87;;;;;;;11.44;72.12;101761.19;5085960;28;20221;-65
2021/06/13 03:57:42;;;;;;;9.23;4.20;;;;;;;11.45;72.28;101757.56;5078470;28;20208;-65
2021/06/13 04:00:10;;;;;;;9.97;3.80;;;;;;;11.46;72.33;101758.44;5088482;28;20219;-66
2021/06/13 04:02:42;;;;;;;8.03;3.80;;;;;;;11.47;72.29;101753.00;5085739;28;20200;-64
2021/06/13 04:05:10;;;;;;;10.23;4.40;;;;;;;11.48;72.30;101767.22;5076777;28;20305;-64
2021/06/13 04:07:38;;;;;;;6.60;3.73;;;;;;;11.50;72.32;101768.00;5075213;28;20204;-64
2021/06/13 04:10:05;;;;;;;9.90;3.90;;;;;;;11.51;72.33;101772.41;5077446;28;20216;-67
2021/06/13 04:12:33;;;;;;;6.63;3.77;;;;;;;11.52;72.34;101776.78;5082081;28;20693;-64
2021/06/13 04:15:00;;;;;;;10.70;4.00;;;;;;;11.53;72.07;101773.19;5084171;28;20311;-66
2021/06/13 04:17:27;;;;;;;8.37;3.83;;;;;;;11.54;72.18;101771.38;5073296;28;20552;-64
2021/06/13 04:19:56;;;;;;;10.27;4.33;;;;;;;11.56;72.29;101774.84;5083274;28;20348;-64
2021/06/13 04:22:23;;;;;;;11.40;4.93;;;;;;;11.57;72.45;101769.44;5076652;28;20203;-65
2021/06/13 04:24:52;;;;;;;7.17;3.67;;;;;;;11.59;72.44;101778.22;5080065;28;20204;-65
2021/06/13 04:27:22;;;;;;;10.57;4.80;;;;;;;11.61;72.43;101784.34;5074997;28;20606;-65
2021/06/13 04:29:49;;;;;;;8.63;3.83;;;;;;;11.62;72.62;101770.09;5075359;28;20288;-65
2021/06/13 04:32:15;;;;;;;12.43;4.43;;;;;;;11.64;72.21;101773.53;5075563;28;20207;-65
2021/06/13 04:34:42;;;;;;;9.20;4.13;;;;;;;11.67;72.43;101772.50;5077998;28;20209;-64
2021/06/13 04:37:11;;;;;;;7.50;4.40;;;;;;;11.69;72.50;101779.47;5088357;28;20197;-66
2021/06/13 04:39:38;;;;;;;9.67;4.03;;;;;;;11.73;72.53;101785.53;5072140;28;20283;-64
2021/06/13 04:42:06;;;;;;;9.60;4.50;;;;;;;11.75;72.38;101778.31;5072514;28;20200;-66
2021/06/13 04:44:33;;;;;;;10.97;3.57;;;;;;;11.78;72.43;101786.22;5077991;28;20212;-65
2021/06/13 04:47:00;;;;;;;10.43;4.97;;;;;;;11.80;72.42;101787.88;5078606;28;20200;-66
2021/06/13 04:49:26;;;;;;;9.87;4.43;;;;;;;11.81;72.31;101786.94;5089040;28;20576;-65
2021/06/13 04:51:56;;;;;;;12.43;4.30;;;;;;;11.82;72.25;101785.97;5078769;28;20608;-65
2021/06/13 04:54:39;;;;;;;20.43;4.97;;;;;;;11.85;72.32;101789.41;5081425;28;20263;-69
2021/06/13 04:57:15;;;;;;;8.73;4.40;;;;;;;11.86;72.33;101789.34;5075607;28;20196;-65
2021/06/13 04:59:42;;;;;;;8.77;4.23;;;;;;;11.88;72.04;101794.59;5078075;28;20228;-66
2021/06/13 05:02:09;;;;;;;10.40;4.60;;;;;;;11.89;72.35;101799.88;5068267;28;20213;-66
2021/06/13 05:04:35;;;;;;;8.93;4.90;;;;;;;11.93;72.47;101800.59;5076550;28;20204;-64
2021/06/13 05:07:03;;;;;;;9.10;4.30;;;;;;;11.96;72.51;101795.09;5084335;28;20207;-65
2021/06/13 05:09:31;;;;;;;10.03;4.70;;;;;;;12.00;72.37;101802.84;5080588;28;20208;-65
2021/06/13 05:11:58;;;;;;;8.97;4.30;;;;;;;12.05;72.31;101799.94;5075520;28;20205;-66
2021/06/13 05:14:25;;;;;;;8.67;4.47;;;;;;;12.08;72.21;101795.31;5083383;28;20208;-64
2021/06/13 05:16:51;;;;;;;10.97;4.87;;;;;;;12.11;71.85;101810.34;5090182;28;20239;-65
2021/06/13 05:19:18;;;;;;;9.23;4.77;;;;;;;12.14;71.96;101810.19;5089646;28;20200;-65
2021/06/13 05:21:45;;;;;;;14.10;4.80;;;;;;;12.20;71.98;101806.31;5089474;28;20222;-65
2021/06/13 05:24:11;;;;;;;11.33;4.67;;;;;;;12.27;71.82;101816.59;5087895;28;20215;-66
2021/06/13 05:26:39;;;;;;;13.13;4.67;;;;;;;12.36;71.85;101817.94;5091029;28;20232;-65
2021/06/13 05:29:06;;;;;;;11.17;4.43;;;;;;;12.44;71.72;101821.06;5088356;28;20198;-65
2021/06/13 05:31:32;;;;;;;9.33;3.87;;;;;;;12.55;71.46;101821.34;5089033;28;20753;-64
2021/06/13 05:33:59;;;;;;;10.43;4.33;;;;;;;12.65;71.35;101829.75;5089577;28;20196;-64
2021/06/13 05:36:25;;;;;;;9.20;4.27;;;;;;;12.76;71.02;101836.25;5081094;28;20230;-63
2021/06/13 05:38:52;;;;;;;11.37;4.40;;;;;;;12.88;70.85;101833.88;5087476;28;20208;-63
2021/06/13 05:41:18;;;;;;;10.50;4.80;;;;;;;13.01;70.73;101832.25;5080621;28;20235;-66
2021/06/13 05:43:46;;;;;;;9.57;4.53;;;;;;;13.13;70.51;101840.47;5081314;28;20210;-63
2021/06/13 05:46:13;;;;;;;10.73;4.93;;;;;;;13.24;69.96;101839.06;5077414;28;20229;-66
2021/06/13 05:48:39;;;;;;;8.33;4.20;;;;;;;13.38;69.44;101849.84;5089079;28;20211;-64
2021/06/13 05:51:07;;;;;;;10.13;4.40;;;;;;;13.50;69.43;101841.13;5085705;28;20197;-65
2021/06/13 05:53:33;;;;;;;8.20;4.13;;;;;;;13.63;68.64;101842.16;5078422;28;20250;-67
2021/06/13 05:56:00;;;;;;;8.23;3.93;;;;;;;13.78;68.45;101843.09;5074687;28;20697;-64
2021/06/13 05:58:26;;;;;;;9.43;4.37;;;;;;;13.90;68.12;101851.28;5082353;28;20201;-65
2021/06/13 06:00:54;;;;;;;7.63;4.00;;;;;;;14.05;67.33;101846.84;5091469;28;20219;-65
2021/06/13 06:03:22;;;;;;;8.47;3.90;;;;;;;14.17;66.29;101853.28;5079975;28;20205;-65
2021/06/13 06:05:50;;;;;;;7.63;3.87;;;;;;;14.31;66.43;101855.16;5079365;28;20228;-65
2021/06/13 06:08:17;;;;;;;12.00;4.30;;;;;;;14.45;65.31;101849.84;5086712;28;20235;-65
2021/06/13 06:10:44;;;;;;;8.27;3.80;;;;;;;14.57;65.15;101859.81;5084928;28;20211;-65
2021/06/13 06:13:11;;;;;;;7.33;3.70;;;;;;;14.70;64.32;101851.88;5090410;28;20230;-65
2021/06/13 06:15:38;;;;;;;8.87;3.83;;;;;;;14.83;64.00;101860.91;5083852;28;20221;-66
2021/06/13 06:18:07;;;;;;;11.57;3.90;;;;;;;14.94;63.04;101863.78;5088621;28;20196;-66
2021/06/13 06:20:33;;;;;;;9.43;3.37;;;;;;;15.05;62.49;101863.97;5086882;28;20224;-66
2021/06/13 06:23:00;;;;;;;13.00;3.53;;;;;;;15.18;62.05;101870.31;5088206;28;20197;-66
2021/06/13 06:25:27;;;;;;;5.83;3.17;;;;;;;15.28;61.30;101862.53;5088933;28;20220;-66
2021/06/13 06:27:54;;;;;;;9.10;4.17;;;;;;;15.39;61.19;101869.91;5085048;28;20674;-67
2021/06/13 06:30:21;;;;;;;9.47;3.43;;;;;;;15.53;60.83;101868.06;5090113;28;20196;-65
2021/06/13 06:32:48;;;;;;;5.50;3.23;;;;;;;15.68;59.73;101860.84;5087646;28;21784;-66
2021/06/13 06:35:17;;;;;;;10.70;4.10;;;;;;;15.78;59.18;101861.94;5087774;28;20216;-66
2021/06/13 06:37:44;;;;;;;7.93;3.53;;;;;;;15.88;58.92;101863.09;5088175;28;20669;-65
2021/06/13 06:40:12;;;;;;;6.40;3.60;;;;;;;15.99;57.98;101856.97;5087566;28;20220;-65
2021/06/13 06:42:39;;;;;;;6.00;3.10;;;;;;;16.05;57.70;101859.28;5085112;28;20254;-65
2021/06/13 06:45:07;;;;;;;8.60;3.23;;;;;;;16.10;57.41;101864.34;5084735;28;20732;-65
2021/06/13 06:47:33;;;;;;;7.47;3.43;;;;;;;16.14;56.94;101866.69;5086532;28;20322;-65
2021/06/13 06:50:00;;;;;;;7.83;3.57;;;;;;;16.18;56.99;101859.28;5084735;28;20211;-65
2021/06/13 06:52:28;;;;;;;7.77;3.57;;;;;;;16.25;57.07;101858.78;5085667;28;20207;-64
2021/06/13 06:54:55;;;;;;;6.37;2.90;;;;;;;16.31;56.15;101868.25;5088806;28;20228;-65
2021/06/13 06:57:21;;;;;;;10.07;2.93;;;;;;;16.33;56.10;101864.50;5087461;28;20200;-64
2021/06/13 06:59:48;;;;;;;7.90;3.43;;;;;;;16.39;55.73;101873.97;5087031;28;20290;-69
2021/06/13 07:02:14;;;;;;;9.03;3.30;;;;;;;16.45;55.56;101873.56;5086145;28;20236;-63
2021/06/13 07:04:41;;;;;;;7.47;3.50;;;;;;;16.47;55.32;101887.78;5086616;28;20600;-65
2021/06/13 07:07:07;;;;;;;8.17;3.43;;;;;;;16.49;55.18;101888.50;5087544;28;20212;-65
2021/06/13 07:09:36;;;;;;;10.20;3.40;;;;;;;16.52;55.60;101888.28;5084388;28;20558;-65
2021/06/13 07:12:02;;;;;;;7.57;3.20;;;;;;;16.55;55.71;101893.47;5086617;28;20296;-67
2021/06/13 07:14:29;;;;;;;11.60;3.73;;;;;;;16.62;55.92;101897.47;5087121;28;20205;-66
2021/06/13 07:16:55;;;;;;;7.40;3.63;;;;;;;16.64;55.48;101906.34;5086798;28;20728;-65
2021/06/13 07:19:22;;;;;;;6.17;3.40;;;;;;;16.65;55.07;101907.19;5085705;28;20196;-65
2021/06/13 07:21:49;;;;;;;7.63;3.80;;;;;;;16.64;54.89;101906.34;5083195;28;20228;-65
2021/06/13 07:24:16;;;;;;;9.90;3.73;;;;;;;16.60;54.71;101910.16;5086863;28;20198;-65
2021/06/13 07:26:44;;;;;;;6.60;3.40;;;;;;;16.59;54.47;101913.81;5083378;28;20226;-64
2021/06/13 07:29:10;;;;;;;8.43;3.60;;;;;;;16.58;54.34;101913.91;5083423;28;20197;-65
2021/06/13 07:31:37;;;;;;;7.60;3.40;;;;;;;16.58;54.48;101919.28;5084252;28;20208;-65
2021/06/13 07:34:03;;;;;;;8.10;3.30;;;;;;;16.61;54.75;101921.78;5089273;28;20219;-66
2021/06/13 07:36:30;;;;;;;9.57;3.73;;;;;;;16.65;54.62;101916.13;5084873;28;20226;-63
2021/06/13 07:38:56;;;;;;;9.20;3.30;;;;;;;16.69;54.54;101919.44;5086248;28;20679;-68
2021/06/13 07:41:23;;;;;;;9.13;3.40;;;;;;;16.77;54.50;101918.94;5085013;28;20226;-64
2021/06/13 07:43:51;;;;;;;8.23;3.70;;;;;;;16.81;54.13;101918.63;5085136;28;20215;-64
2021/06/13 07:46:18;;;;;;;8.07;3.33;;;;;;;16.88;54.10;101921.72;5110772;22;20663;-69
2021/06/13 07:48:44;;;;;;;6.37;3.17;;;;;;;17.00;54.05;101932.50;5081211;28;20202;-68
2021/06/13 07:51:11;;;;;;;7.33;2.90;;;;;;;17.10;53.15;101921.09;5089531;28;20202;-69
2021/06/13 07:53:43;;;;;;;8.87;3.20;;;;;;;17.22;52.67;101914.81;5084162;28;20268;-69
2021/06/13 07:56:10;;;;;;;8.30;3.07;;;;;;;17.35;52.31;101931.84;5084751;28;20222;-69
2021/06/13 07:58:36;;;;;;;8.17;3.03;;;;;;;17.50;51.73;101927.19;5087065;28;20210;-69
2021/06/13 08:01:04;;;;;;;8.40;3.10;;;;;;;17.63;51.29;101926.19;5084624;28;20222;-65
2021/06/13 08:03:31;;;;;;;5.33;2.40;;;;;;;17.76;50.27;101922.63;5084860;28;20686;-67
2021/06/13 08:05:57;;;;;;;8.20;2.97;;;;;;;17.84;49.55;101915.69;5082775;28;20228;-66
2021/06/13 08:08:24;;;;;;;6.97;3.63;;;;;;;17.95;49.55;101918.44;5085343;28;20198;-68
2021/06/13 08:10:50;;;;;;;6.53;3.00;;;;;;;18.11;49.25;101922.69;5087514;28;20231;-68
2021/06/13 08:13:18;;;;;;;7.37;2.60;;;;;;;18.27;48.20;101915.19;5084461;28;20226;-69
2021/06/13 08:15:45;;;;;;;5.83;2.83;;;;;;;18.41;47.13;101914.16;5081120;28;20204;-68
2021/06/13 08:18:13;;;;;;;6.50;2.80;;;;;;;18.54;47.26;101920.31;5085664;28;20199;-70
2021/06/13 08:20:40;;;;;;;6.77;3.30;;;;;;;18.67;46.19;101924.69;5086494;28;20238;-68
2021/06/13 08:23:07;;;;;;;9.27;3.43;;;;;;;18.73;45.77;101916.13;5084684;28;20253;-69
2021/06/13 08:25:33;;;;;;;6.23;3.00;;;;;;;18.77;45.59;101918.59;5084257;28;20205;-69
2021/06/13 08:28:00;;;;;;;6.03;3.80;;;;;;;18.79;45.46;101916.63;5085155;28;20729;-69
2021/06/13 08:30:26;;;;;;;5.47;2.53;;;;;;;18.78;44.62;101917.59;5085637;28;20206;-68
2021/06/13 08:32:53;;;;;;;6.63;2.77;;;;;;;18.75;44.82;101916.00;5085777;28;20210;-68
2021/06/13 08:35:21;;;;;;;6.70;2.70;;;;;;;18.79;45.30;101912.09;5084227;28;20209;-67
2021/06/13 08:37:49;;;;;;;6.10;2.53;;;;;;;18.89;45.01;101920.31;5085658;28;20711;-66
2021/06/13 08:40:16;;;;;;;5.10;2.67;;;;;;;18.93;44.29;101919.97;5081780;28;20207;-68
2021/06/13 08:42:43;;;;;;;6.50;2.33;;;;;;;18.95;43.86;101915.31;5084120;28;20225;-69
2021/06/13 08:45:13;;;;;;;4.17;2.30;;;;;;;18.95;43.34;101925.25;5084609;28;20577;-68
2021/06/13 08:47:40;;;;;;;4.97;2.47;;;;;;;18.87;43.52;101924.97;5090503;28;20714;-68
2021/06/13 08:50:09;;;;;;;6.20;2.70;;;;;;;18.84;43.94;101927.91;5089367;28;20212;-68
2021/06/13 08:52:38;;;;;;;4.53;2.20;;;;;;;18.84;44.40;101942.25;5087034;28;20237;-68
2021/06/13 08:55:07;;;;;;;5.50;2.60;;;;;;;18.84;44.29;101930.59;5088919;28;20303;-68
2021/06/13 08:57:33;;;;;;;9.87;2.63;;;;;;;18.86;44.45;101937.59;5088960;28;20255;-68
2021/06/13 09:00:00;;;;;;;6.37;2.50;;;;;;;18.98;44.58;101935.81;5090558;28;20593;-69
2021/06/13 09:02:26;;;;;;;5.67;2.40;;;;;;;19.05;43.85;101932.50;5089887;28;20229;-68
2021/06/13 09:04:53;;;;;;;7.80;2.67;;;;;;;19.06;43.56;101933.34;5090946;28;20212;-68
2021/06/13 09:07:25;;;;;;;4.23;2.60;;;;;;;19.15;44.22;101934.47;5089749;28;20226;-68
2021/06/13 09:09:53;;;;;;;5.70;2.20;;;;;;;19.29;43.80;101943.19;5090360;28;20694;-68
2021/06/13 09:12:20;;;;;;;4.97;2.57;;;;;;;19.42;43.72;101935.81;5089658;28;20204;-68
2021/06/13 09:14:51;;;;;;;6.17;2.60;;;;;;;19.53;43.27;101936.81;5089647;28;20659;-68
2021/06/13 09:17:20;;;;;;;5.40;3.07;;;;;;;19.54;42.53;101943.94;5089877;28;20216;-68
2021/06/13 09:20:03;;;;;;;6.10;2.70;;;;;;;19.47;42.31;101942.72;5089758;28;20679;-68
2021/06/13 09:22:30;;;;;;;5.87;2.50;;;;;;;19.43;42.74;101947.50;5089071;28;20232;-67
2021/06/13 09:25:07;;;;;;;4.37;2.33;;;;;;;19.40;43.25;101940.50;5088223;28;20582;-68
2021/06/13 09:27:34;;;;;;;4.90;2.60;;;;;;;19.38;42.89;101941.59;5088214;28;20721;-68
2021/06/13 09:30:00;;;;;;;5.90;2.50;;;;;;;19.35;43.05;101939.13;5089700;28;20207;-68
2021/06/13 09:32:27;;;;;;;6.17;2.87;;;;;;;19.36;43.04;101941.72;5089015;28;20210;-67
2021/06/13 09:35:21;;;;;;;5.97;2.53;;;;;;;19.41;43.00;101938.66;5089802;28;20203;-68
2021/06/13 09:38:07;;;;;;;5.87;2.30;;;;;;;19.51;42.63;101941.53;5086709;28;20634;-68
2021/06/13 09:40:36;;;;;;;3.27;2.10;;;;;;;19.56;41.65;101936.59;5084124;28;20210;-68
2021/06/13 09:43:11;;;;;;;5.43;2.33;;;;;;;19.55;41.14;101937.56;5086751;28;20220;-68
2021/06/13 09:45:38;;;;;;;3.90;2.27;;;;;;;19.55;40.86;101943.81;5084348;28;20202;-68
2021/06/13 09:48:05;;;;;;;5.00;2.20;;;;;;;19.54;41.14;101935.84;5087614;28;20222;-68
2021/06/13 09:50:40;;;;;;;5.30;2.57;;;;;;;19.52;41.74;101940.53;5086908;28;20576;-68
2021/06/13 09:53:31;;;;;;;7.77;2.90;;;;;;;19.54;42.38;101939.41;5083555;28;20203;-68
2021/06/13 09:56:08;;;;;;;7.57;2.90;;;;;;;19.65;42.79;101944.81;5085427;28;20236;-69
2021/06/13 09:58:45;;;;;;;6.07;2.47;;;;;;;19.74;41.46;101932.38;5087302;28;21028;-68
2021/06/13 10:01:12;;;;;;;4.30;2.37;;;;;;;19.83;41.52;101945.16;5084300;28;20226;-68
2021/06/13 10:03:39;;;;;;;5.07;2.77;;;;;;;19.92;41.51;101938.13;5086739;28;20222;-67
2021/06/13 10:06:08;;;;;;;5.97;2.63;;;;;;;20.02;40.94;101939.97;5088647;28;20223;-67
2021/06/13 10:08:35;;;;;;;6.63;2.67;;;;;;;20.04;41.10;101938.00;5087353;28;20207;-68
2021/06/13 10:11:04;;;;;;;5.30;2.40;;;;;;;20.10;40.80;101944.72;5087055;28;20210;-68
2021/06/13 10:13:44;;;;;;;5.30;2.50;;;;;;;20.19;41.05;101943.97;5086325;28;20198;-68
2021/06/13 10:16:22;;;;;;;5.30;2.40;;;;;;;20.30;40.31;101943.06;5086785;28;20231;-68
2021/06/13 10:18:52;;;;;;;4.13;2.10;;;;;;;20.37;40.13;101938.91;5086698;28;20212;-67
2021/06/13 10:21:20;;;;;;;4.43;1.90;;;;;;;20.45;40.11;101947.22;5087012;28;20199;-69
2021/06/13 10:23:47;;;;;;;3.70;2.30;;;;;;;20.54;39.47;101930.22;5087523;28;20206;-68
2021/06/13 10:26:14;;;;;;;7.80;2.83;;;;;;;20.62;39.18;101943.94;5085924;28;20761;-67
2021/06/13 10:28:41;;;;;;;5.00;2.50;;;;;;;20.65;39.66;101931.97;5087246;28;20215;-67
2021/06/13 10:31:08;;;;;;;4.70;2.57;;;;;;;20.68;39.83;101934.44;5087035;28;20195;-68
2021/06/13 10:33:36;;;;;;;4.63;2.67;;;;;;;20.69;40.14;101939.72;5086939;28;20208;-68
2021/06/13 10:36:03;;;;;;;7.77;2.57;;;;;;;20.76;39.63;101940.94;5085600;28;20217;-68
2021/06/13 10:38:30;;;;;;;5.63;2.30;;;;;;;20.79;39.05;101940.63;5087813;28;20215;-69
2021/06/13 10:40:57;;;;;;;5.73;2.33;;;;;;;20.87;39.41;101929.16;5088187;28;20213;-67
2021/06/13 10:43:27;;;;;;;5.60;2.50;;;;;;;21.01;38.66;101933.38;5087485;28;20342;-68
2021/06/13 10:46:03;;;;;;;4.57;2.50;;;;;;;21.11;38.26;101932.44;5083785;28;20239;-69
2021/06/13 10:48:37;;;;;;;5.40;2.70;;;;;;;21.23;37.78;101924.25;5087810;28;20209;-68
2021/06/13 10:51:36;;;;;;;6.20;2.43;;;;;;;21.35;38.47;101928.56;5084249;28;20254;-69
2021/06/13 10:54:25;;;;;;;4.67;2.23;;;;;;;21.44;38.16;101933.19;5085193;28;20596;-68
2021/06/13 10:56:53;;;;;;;5.47;2.50;;;;;;;21.49;38.18;101939.09;5080991;28;20231;-69
2021/06/13 10:59:22;;;;;;;5.03;2.20;;;;;;;21.53;37.88;101940.50;5087604;28;20209;-68
2021/06/13 11:02:03;;;;;;;2.92;2.10;;;;;;;21.53;37.51;101935.06;5081834;28;20666;-67
2021/06/13 11:04:47;;;;;;;4.43;2.40;;;;;;;21.51;37.07;101936.19;5078398;28;20196;-68
2021/06/13 11:07:55;;;;;;;6.18;3.08;;;;;;;21.47;36.76;101928.38;5085257;28;20227;-68
2021/06/13 11:10:27;;;;;;;6.47;2.97;;;;;;;21.53;37.49;101936.94;5083245;28;20211;-68
2021/06/13 11:12:59;;;;;;;4.23;2.70;;;;;;;21.61;37.48;101942.53;5086853;28;20207;-69
2021/06/13 11:15:50;;;;;;;4.70;2.10;;;;;;;21.66;37.14;101935.72;5083317;28;20204;-68
2021/06/13 11:18:20;;;;;;;4.57;2.60;;;;;;;21.71;37.25;101944.28;5088085;28;20192;-68
2021/06/13 11:20:49;;;;;;;5.70;3.70;;;;;;;21.73;37.11;101953.13;5086565;28;20207;-68
2021/06/13 11:23:44;;;;;;;4.60;2.43;;;;;;;21.81;37.18;101938.91;5083815;28;20317;-67
2021/06/13 11:26:32;;;;;;;3.88;2.38;;;;;;;21.85;37.10;101944.91;5087224;28;20309;-69
2021/06/13 11:28:59;;;;;;;3.28;2.17;;;;;;;21.83;36.82;101948.63;5085026;28;20204;-69
2021/06/13 11:31:28;;;;;;;4.00;2.30;;;;;;;21.79;37.01;101947.16;5084209;28;20476;-67
2021/06/13 11:34:06;;;;;;;4.15;2.15;;;;;;;21.75;36.88;101940.28;5085835;28;20196;-69
2021/06/13 11:36:34;;;;;;;4.50;2.43;;;;;;;21.72;37.09;101932.44;5085251;28;20572;-69